sensor_id;sensor_type;location;lat;lon;timestamp;temperature;humidity
49238;DHT22;35069;47.906;1.892;2023-02-28T00:00:19;1.40;69.40
49238;DHT22;35069;47.906;1.892;2023-02-28T00:02:46;1.40;70.20
49238;DHT22;35069;47.906;1.892;2023-02-28T00:05:15;1.40;69.50
49238;DHT22;35069;47.906;1.892;2023-02-28T00:07:41;1.30;70.30
49238;DHT22;35069;47.906;1.892;2023-02-28T00:10:10;1.30;70.30
49238;DHT22;35069;47.906;1.892;2023-02-28T00:12:36;1.30;70.90
49238;DHT22;35069;47.906;1.892;2023-02-28T00:15:07;1.30;71.20
49238;DHT22;35069;47.906;1.892;2023-02-28T00:17:33;1.20;70.90
49238;DHT22;35069;47.906;1.892;2023-02-28T00:19:59;1.10;70.40
49238;DHT22;35069;47.906;1.892;2023-02-28T00:22:42;1.20;71.50
49238;DHT22;35069;47.906;1.892;2023-02-28T00:25:09;1.10;71.20
49238;DHT22;35069;47.906;1.892;2023-02-28T00:27:36;1.10;71.60
49238;DHT22;35069;47.906;1.892;2023-02-28T00:30:03;1.10;71.40
49238;DHT22;35069;47.906;1.892;2023-02-28T00:32:29;1.10;71.60
49238;DHT22;35069;47.906;1.892;2023-02-28T00:34:55;1.00;71.80
49238;DHT22;35069;47.906;1.892;2023-02-28T00:37:21;1.00;71.80
49238;DHT22;35069;47.906;1.892;2023-02-28T00:39:47;0.90;71.70
49238;DHT22;35069;47.906;1.892;2023-02-28T00:42:12;0.90;72.30
49238;DHT22;35069;47.906;1.892;2023-02-28T00:44:38;0.90;71.50
49238;DHT22;35069;47.906;1.892;2023-02-28T00:47:04;0.90;72.30
49238;DHT22;35069;47.906;1.892;2023-02-28T00:49:29;0.90;72.80
49238;DHT22;35069;47.906;1.892;2023-02-28T00:51:55;0.80;72.10
49238;DHT22;35069;47.906;1.892;2023-02-28T00:54:21;0.90;71.50
49238;DHT22;35069;47.906;1.892;2023-02-28T00:56:48;0.80;72.50
49238;DHT22;35069;47.906;1.892;2023-02-28T00:59:15;0.80;72.50
49238;DHT22;35069;47.906;1.892;2023-02-28T01:01:42;0.80;72.60
49238;DHT22;35069;47.906;1.892;2023-02-28T01:04:09;0.80;72.80
49238;DHT22;35069;47.906;1.892;2023-02-28T01:06:34;0.80;72.80
49238;DHT22;35069;47.906;1.892;2023-02-28T01:09:01;0.70;73.10
49238;DHT22;35069;47.906;1.892;2023-02-28T01:11:27;0.70;73.20
49238;DHT22;35069;47.906;1.892;2023-02-28T01:13:53;0.70;72.60
49238;DHT22;35069;47.906;1.892;2023-02-28T01:16:19;0.70;73.60
49238;DHT22;35069;47.906;1.892;2023-02-28T01:18:44;0.60;73.60
49238;DHT22;35069;47.906;1.892;2023-02-28T01:21:13;0.60;72.10
49238;DHT22;35069;47.906;1.892;2023-02-28T01:23:39;0.60;73.10
49238;DHT22;35069;47.906;1.892;2023-02-28T01:26:07;0.60;73.60
49238;DHT22;35069;47.906;1.892;2023-02-28T01:28:33;0.60;72.60
49238;DHT22;35069;47.906;1.892;2023-02-28T01:30:59;0.60;71.80
49238;DHT22;35069;47.906;1.892;2023-02-28T01:33:25;0.60;73.00
49238;DHT22;35069;47.906;1.892;2023-02-28T01:36:00;0.60;71.60
49238;DHT22;35069;47.906;1.892;2023-02-28T01:38:27;0.70;72.20
49238;DHT22;35069;47.906;1.892;2023-02-28T01:40:52;0.60;71.50
49238;DHT22;35069;47.906;1.892;2023-02-28T01:43:23;0.60;72.90
49238;DHT22;35069;47.906;1.892;2023-02-28T01:45:49;0.60;72.80
49238;DHT22;35069;47.906;1.892;2023-02-28T01:48:15;0.60;72.50
49238;DHT22;35069;47.906;1.892;2023-02-28T01:50:43;0.60;73.90
49238;DHT22;35069;47.906;1.892;2023-02-28T01:53:16;0.60;74.50
49238;DHT22;35069;47.906;1.892;2023-02-28T01:55:47;0.50;74.30
49238;DHT22;35069;47.906;1.892;2023-02-28T01:58:13;0.40;75.10
49238;DHT22;35069;47.906;1.892;2023-02-28T02:00:38;0.40;75.10
49238;DHT22;35069;47.906;1.892;2023-02-28T02:03:09;0.40;76.30
49238;DHT22;35069;47.906;1.892;2023-02-28T02:05:37;0.30;74.60
49238;DHT22;35069;47.906;1.892;2023-02-28T02:08:05;0.30;75.60
49238;DHT22;35069;47.906;1.892;2023-02-28T02:10:55;0.30;75.80
49238;DHT22;35069;47.906;1.892;2023-02-28T02:25:07;0.40;77.30
49238;DHT22;35069;47.906;1.892;2023-02-28T02:32:56;0.20;78.10
49238;DHT22;35069;47.906;1.892;2023-02-28T02:35:40;0.30;77.40
49238;DHT22;35069;47.906;1.892;2023-02-28T02:38:47;0.20;77.40
49238;DHT22;35069;47.906;1.892;2023-02-28T02:46:23;0.20;78.00
49238;DHT22;35069;47.906;1.892;2023-02-28T02:48:50;0.20;79.60
49238;DHT22;35069;47.906;1.892;2023-02-28T02:51:19;0.10;78.90
49238;DHT22;35069;47.906;1.892;2023-02-28T02:53:50;0.10;78.90
49238;DHT22;35069;47.906;1.892;2023-02-28T02:56:20;0.10;78.60
49238;DHT22;35069;47.906;1.892;2023-02-28T02:58:49;0.10;78.30
49238;DHT22;35069;47.906;1.892;2023-02-28T03:01:22;0.10;79.40
49238;DHT22;35069;47.906;1.892;2023-02-28T03:04:07;0.10;78.50
49238;DHT22;35069;47.906;1.892;2023-02-28T03:06:33;0.10;79.20
49238;DHT22;35069;47.906;1.892;2023-02-28T03:09:00;0.10;79.30
49238;DHT22;35069;47.906;1.892;2023-02-28T03:11:26;0.00;79.60
49238;DHT22;35069;47.906;1.892;2023-02-28T03:13:53;0.00;78.70
49238;DHT22;35069;47.906;1.892;2023-02-28T03:27:11;-0.10;79.10
49238;DHT22;35069;47.906;1.892;2023-02-28T03:29:45;-0.10;79.00
49238;DHT22;35069;47.906;1.892;2023-02-28T03:32:18;-0.10;78.80
49238;DHT22;35069;47.906;1.892;2023-02-28T03:34:56;0.00;79.10
49238;DHT22;35069;47.906;1.892;2023-02-28T03:37:25;-0.10;79.40
49238;DHT22;35069;47.906;1.892;2023-02-28T03:39:59;-0.10;78.60
49238;DHT22;35069;47.906;1.892;2023-02-28T03:42:28;-0.10;78.60
49238;DHT22;35069;47.906;1.892;2023-02-28T03:44:58;-0.10;79.50
49238;DHT22;35069;47.906;1.892;2023-02-28T03:47:29;-0.20;79.60
49238;DHT22;35069;47.906;1.892;2023-02-28T03:52:28;-0.20;78.50
49238;DHT22;35069;47.906;1.892;2023-02-28T03:54:59;-0.20;79.70
49238;DHT22;35069;47.906;1.892;2023-02-28T04:00:24;-0.20;80.50
49238;DHT22;35069;47.906;1.892;2023-02-28T04:02:46;-0.30;82.50
49238;DHT22;35069;47.906;1.892;2023-02-28T04:05:18;-0.30;81.00
49238;DHT22;35069;47.906;1.892;2023-02-28T04:07:44;-0.30;80.20
49238;DHT22;35069;47.906;1.892;2023-02-28T04:10:11;-0.30;81.00
49238;DHT22;35069;47.906;1.892;2023-02-28T04:12:37;-0.40;80.90
49238;DHT22;35069;47.906;1.892;2023-02-28T04:15:03;-0.40;80.90
49238;DHT22;35069;47.906;1.892;2023-02-28T04:17:28;-0.40;80.10
49238;DHT22;35069;47.906;1.892;2023-02-28T04:19:54;-0.40;79.40
49238;DHT22;35069;47.906;1.892;2023-02-28T04:22:21;-0.40;79.60
49238;DHT22;35069;47.906;1.892;2023-02-28T04:24:47;-0.40;79.80
49238;DHT22;35069;47.906;1.892;2023-02-28T04:27:13;-0.40;80.80
49238;DHT22;35069;47.906;1.892;2023-02-28T04:29:41;-0.40;81.00
49238;DHT22;35069;47.906;1.892;2023-02-28T04:32:10;-0.40;80.20
49238;DHT22;35069;47.906;1.892;2023-02-28T04:34:36;-0.40;79.60
49238;DHT22;35069;47.906;1.892;2023-02-28T04:37:02;-0.40;81.00
49238;DHT22;35069;47.906;1.892;2023-02-28T04:39:28;-0.50;81.20
49238;DHT22;35069;47.906;1.892;2023-02-28T04:41:55;-0.50;81.50
49238;DHT22;35069;47.906;1.892;2023-02-28T04:44:21;-0.50;81.70
49238;DHT22;35069;47.906;1.892;2023-02-28T04:46:48;-0.60;82.00
49238;DHT22;35069;47.906;1.892;2023-02-28T04:49:14;-0.60;82.00
49238;DHT22;35069;47.906;1.892;2023-02-28T04:51:41;-0.60;82.90
49238;DHT22;35069;47.906;1.892;2023-02-28T04:54:07;-0.70;83.30
49238;DHT22;35069;47.906;1.892;2023-02-28T04:56:33;-0.70;83.70
49238;DHT22;35069;47.906;1.892;2023-02-28T04:58:59;-0.70;83.00
49238;DHT22;35069;47.906;1.892;2023-02-28T05:01:30;-0.70;82.70
49238;DHT22;35069;47.906;1.892;2023-02-28T05:03:57;-0.80;84.30
49238;DHT22;35069;47.906;1.892;2023-02-28T05:06:25;-0.80;82.90
49238;DHT22;35069;47.906;1.892;2023-02-28T05:08:51;-0.80;82.40
49238;DHT22;35069;47.906;1.892;2023-02-28T05:11:26;-0.70;82.60
49238;DHT22;35069;47.906;1.892;2023-02-28T05:13:52;-0.70;82.00
49238;DHT22;35069;47.906;1.892;2023-02-28T05:16:19;-0.70;82.50
49238;DHT22;35069;47.906;1.892;2023-02-28T05:18:45;-0.70;81.90
49238;DHT22;35069;47.906;1.892;2023-02-28T05:21:38;-0.70;81.10
49238;DHT22;35069;47.906;1.892;2023-02-28T05:24:10;-0.60;81.00
49238;DHT22;35069;47.906;1.892;2023-02-28T05:26:37;-0.60;81.00
49238;DHT22;35069;47.906;1.892;2023-02-28T05:29:03;-0.60;80.90
49238;DHT22;35069;47.906;1.892;2023-02-28T05:31:30;-0.60;81.50
49238;DHT22;35069;47.906;1.892;2023-02-28T05:33:56;-0.70;82.90
49238;DHT22;35069;47.906;1.892;2023-02-28T05:36:22;-0.80;83.60
49238;DHT22;35069;47.906;1.892;2023-02-28T05:38:48;-0.80;84.40
49238;DHT22;35069;47.906;1.892;2023-02-28T05:41:15;-0.90;85.00
49238;DHT22;35069;47.906;1.892;2023-02-28T05:43:41;-1.00;84.30
49238;DHT22;35069;47.906;1.892;2023-02-28T05:46:08;-1.00;85.40
49238;DHT22;35069;47.906;1.892;2023-02-28T05:48:36;-1.00;86.40
49238;DHT22;35069;47.906;1.892;2023-02-28T05:51:02;-1.10;86.20
49238;DHT22;35069;47.906;1.892;2023-02-28T05:53:29;-1.10;85.60
49238;DHT22;35069;47.906;1.892;2023-02-28T05:55:54;-1.10;84.00
49238;DHT22;35069;47.906;1.892;2023-02-28T05:58:21;-1.00;84.30
49238;DHT22;35069;47.906;1.892;2023-02-28T06:00:47;-1.00;84.00
49238;DHT22;35069;47.906;1.892;2023-02-28T06:03:13;-1.00;83.30
49238;DHT22;35069;47.906;1.892;2023-02-28T06:05:38;-1.00;84.50
49238;DHT22;35069;47.906;1.892;2023-02-28T06:08:04;-1.00;86.10
49238;DHT22;35069;47.906;1.892;2023-02-28T06:10:33;-1.00;83.50
49238;DHT22;35069;47.906;1.892;2023-02-28T06:13:02;-1.00;83.20
49238;DHT22;35069;47.906;1.892;2023-02-28T06:15:29;-1.00;83.80
49238;DHT22;35069;47.906;1.892;2023-02-28T06:17:55;-1.00;84.80
49238;DHT22;35069;47.906;1.892;2023-02-28T06:20:25;-1.00;84.90
49238;DHT22;35069;47.906;1.892;2023-02-28T06:22:57;-1.00;85.30
49238;DHT22;35069;47.906;1.892;2023-02-28T06:25:27;-1.00;86.50
49238;DHT22;35069;47.906;1.892;2023-02-28T06:27:53;-1.10;86.40
49238;DHT22;35069;47.906;1.892;2023-02-28T06:30:20;-1.10;86.70
49238;DHT22;35069;47.906;1.892;2023-02-28T06:32:50;-1.10;85.90
49238;DHT22;35069;47.906;1.892;2023-02-28T06:35:16;-1.10;86.60
49238;DHT22;35069;47.906;1.892;2023-02-28T06:37:41;-1.10;87.00
49238;DHT22;35069;47.906;1.892;2023-02-28T06:40:13;-1.10;86.90
49238;DHT22;35069;47.906;1.892;2023-02-28T06:42:39;-1.10;86.40
49238;DHT22;35069;47.906;1.892;2023-02-28T06:45:04;-1.10;85.90
49238;DHT22;35069;47.906;1.892;2023-02-28T06:47:35;-1.00;86.80
49238;DHT22;35069;47.906;1.892;2023-02-28T06:50:01;-1.00;86.40
49238;DHT22;35069;47.906;1.892;2023-02-28T06:52:27;-0.90;86.10
49238;DHT22;35069;47.906;1.892;2023-02-28T06:54:52;-0.90;86.80
49238;DHT22;35069;47.906;1.892;2023-02-28T06:57:27;-0.90;86.40
49238;DHT22;35069;47.906;1.892;2023-02-28T06:59:55;-0.80;86.70
49238;DHT22;35069;47.906;1.892;2023-02-28T07:02:21;-0.80;86.80
49238;DHT22;35069;47.906;1.892;2023-02-28T07:04:47;-0.80;86.80
49238;DHT22;35069;47.906;1.892;2023-02-28T07:07:12;-0.70;86.90
49238;DHT22;35069;47.906;1.892;2023-02-28T07:09:38;-0.60;87.00
49238;DHT22;35069;47.906;1.892;2023-02-28T07:12:04;-0.40;86.40
49238;DHT22;35069;47.906;1.892;2023-02-28T07:14:29;0.60;87.90
49238;DHT22;35069;47.906;1.892;2023-02-28T07:16:55;3.10;81.90
49238;DHT22;35069;47.906;1.892;2023-02-28T07:19:21;5.90;75.80
49238;DHT22;35069;47.906;1.892;2023-02-28T07:21:46;8.60;68.80
49238;DHT22;35069;47.906;1.892;2023-02-28T07:24:12;10.60;61.60
49238;DHT22;35069;47.906;1.892;2023-02-28T07:26:41;12.50;58.60
49238;DHT22;35069;47.906;1.892;2023-02-28T07:29:06;14.10;54.50
49238;DHT22;35069;47.906;1.892;2023-02-28T07:31:32;15.10;51.10
49238;DHT22;35069;47.906;1.892;2023-02-28T07:33:57;15.60;48.70
49238;DHT22;35069;47.906;1.892;2023-02-28T07:36:24;15.50;47.40
49238;DHT22;35069;47.906;1.892;2023-02-28T07:38:49;15.70;47.60
49238;DHT22;35069;47.906;1.892;2023-02-28T07:41:29;15.10;46.90
49238;DHT22;35069;47.906;1.892;2023-02-28T07:46:49;12.60;51.10
49238;DHT22;35069;47.906;1.892;2023-02-28T07:49:20;11.90;54.50
49238;DHT22;35069;47.906;1.892;2023-02-28T07:51:49;13.60;50.80
49238;DHT22;35069;47.906;1.892;2023-02-28T07:57:25;18.80;45.60
49238;DHT22;35069;47.906;1.892;2023-02-28T08:00:46;20.60;36.10
49238;DHT22;35069;47.906;1.892;2023-02-28T08:03:28;22.50;40.40
49238;DHT22;35069;47.906;1.892;2023-02-28T08:05:54;23.80;39.10
49238;DHT22;35069;47.906;1.892;2023-02-28T08:08:20;23.10;37.70
49238;DHT22;35069;47.906;1.892;2023-02-28T08:10:45;22.40;37.50
49238;DHT22;35069;47.906;1.892;2023-02-28T08:13:11;21.10;37.20
49238;DHT22;35069;47.906;1.892;2023-02-28T08:15:36;20.90;36.40
49238;DHT22;35069;47.906;1.892;2023-02-28T08:18:02;20.70;34.80
49238;DHT22;35069;47.906;1.892;2023-02-28T08:20:28;16.50;34.70
49238;DHT22;35069;47.906;1.892;2023-02-28T08:22:53;13.10;37.60
49238;DHT22;35069;47.906;1.892;2023-02-28T08:25:19;10.00;41.60
49238;DHT22;35069;47.906;1.892;2023-02-28T08:27:45;8.00;45.20
49238;DHT22;35069;47.906;1.892;2023-02-28T08:30:12;6.60;47.80
49238;DHT22;35069;47.906;1.892;2023-02-28T08:32:38;5.80;49.50
49238;DHT22;35069;47.906;1.892;2023-02-28T08:35:03;5.00;51.40
49238;DHT22;35069;47.906;1.892;2023-02-28T08:37:29;4.60;53.10
49238;DHT22;35069;47.906;1.892;2023-02-28T08:39:55;4.20;54.00
49238;DHT22;35069;47.906;1.892;2023-02-28T08:42:20;3.90;56.30
49238;DHT22;35069;47.906;1.892;2023-02-28T08:44:46;3.70;56.50
49238;DHT22;35069;47.906;1.892;2023-02-28T08:47:12;3.60;56.80
49238;DHT22;35069;47.906;1.892;2023-02-28T08:49:37;3.40;58.10
49238;DHT22;35069;47.906;1.892;2023-02-28T08:52:03;3.50;57.70
49238;DHT22;35069;47.906;1.892;2023-02-28T08:54:29;3.40;58.40
49238;DHT22;35069;47.906;1.892;2023-02-28T08:56:56;3.40;59.30
49238;DHT22;35069;47.906;1.892;2023-02-28T08:59:22;3.40;58.70
49238;DHT22;35069;47.906;1.892;2023-02-28T09:01:48;3.40;58.50
49238;DHT22;35069;47.906;1.892;2023-02-28T09:04:13;3.40;59.90
49238;DHT22;35069;47.906;1.892;2023-02-28T09:06:39;3.30;60.30
49238;DHT22;35069;47.906;1.892;2023-02-28T09:09:05;3.30;60.10
49238;DHT22;35069;47.906;1.892;2023-02-28T09:11:33;3.30;59.80
49238;DHT22;35069;47.906;1.892;2023-02-28T09:14:01;3.30;60.60
49238;DHT22;35069;47.906;1.892;2023-02-28T09:16:28;3.30;60.40
49238;DHT22;35069;47.906;1.892;2023-02-28T09:18:54;3.30;60.90
49238;DHT22;35069;47.906;1.892;2023-02-28T09:21:20;3.30;60.40
49238;DHT22;35069;47.906;1.892;2023-02-28T09:23:48;3.30;60.40
49238;DHT22;35069;47.906;1.892;2023-02-28T09:26:23;3.40;60.40
49238;DHT22;35069;47.906;1.892;2023-02-28T09:28:49;3.50;60.20
49238;DHT22;35069;47.906;1.892;2023-02-28T09:31:17;4.00;60.60
49238;DHT22;35069;47.906;1.892;2023-02-28T09:33:46;4.50;60.30
49238;DHT22;35069;47.906;1.892;2023-02-28T09:36:12;5.10;61.30
49238;DHT22;35069;47.906;1.892;2023-02-28T09:38:37;5.60;61.10
49238;DHT22;35069;47.906;1.892;2023-02-28T09:41:13;6.40;62.00
49238;DHT22;35069;47.906;1.892;2023-02-28T09:43:44;7.10;62.10
49238;DHT22;35069;47.906;1.892;2023-02-28T09:48:52;8.50;57.80
49238;DHT22;35069;47.906;1.892;2023-02-28T09:54:03;10.40;60.50
49238;DHT22;35069;47.906;1.892;2023-02-28T09:56:39;11.10;53.80
49238;DHT22;35069;47.906;1.892;2023-02-28T10:04:51;14.80;40.80
49238;DHT22;35069;47.906;1.892;2023-02-28T10:10:27;18.90;39.70
49238;DHT22;35069;47.906;1.892;2023-02-28T10:12:55;21.00;37.80
49238;DHT22;35069;47.906;1.892;2023-02-28T10:15:24;20.90;31.00
49238;DHT22;35069;47.906;1.892;2023-02-28T10:17:54;18.80;31.10
49238;DHT22;35069;47.906;1.892;2023-02-28T10:20:23;17.90;34.40
49238;DHT22;35069;47.906;1.892;2023-02-28T10:25:45;17.10;32.20
49238;DHT22;35069;47.906;1.892;2023-02-28T10:28:15;18.40;33.90
49238;DHT22;35069;47.906;1.892;2023-02-28T10:30:45;18.90;32.50
49238;DHT22;35069;47.906;1.892;2023-02-28T10:35:43;18.70;33.20
49238;DHT22;35069;47.906;1.892;2023-02-28T10:38:19;17.20;34.30
49238;DHT22;35069;47.906;1.892;2023-02-28T10:40:45;16.80;33.80
49238;DHT22;35069;47.906;1.892;2023-02-28T10:45:59;17.80;33.00
49238;DHT22;35069;47.906;1.892;2023-02-28T10:48:31;17.30;30.90
49238;DHT22;35069;47.906;1.892;2023-02-28T10:50:58;15.80;31.20
49238;DHT22;35069;47.906;1.892;2023-02-28T11:01:21;14.60;33.10
49238;DHT22;35069;47.906;1.892;2023-02-28T11:15:23;15.40;31.00
49238;DHT22;35069;47.906;1.892;2023-02-28T11:20:29;14.10;35.70
49238;DHT22;35069;47.906;1.892;2023-02-28T11:22:57;14.00;35.50
49238;DHT22;35069;47.906;1.892;2023-02-28T11:25:31;14.20;36.30
49238;DHT22;35069;47.906;1.892;2023-02-28T11:28:05;14.40;35.50
49238;DHT22;35069;47.906;1.892;2023-02-28T11:35:48;15.60;35.70
49238;DHT22;35069;47.906;1.892;2023-02-28T11:38:14;15.70;36.50
49238;DHT22;35069;47.906;1.892;2023-02-28T11:43:43;14.20;32.80
49238;DHT22;35069;47.906;1.892;2023-02-28T11:46:16;13.70;33.40
49238;DHT22;35069;47.906;1.892;2023-02-28T11:51:49;12.90;35.30
49238;DHT22;35069;47.906;1.892;2023-02-28T11:54:34;13.20;35.20
49238;DHT22;35069;47.906;1.892;2023-02-28T12:02:30;12.40;34.60
49238;DHT22;35069;47.906;1.892;2023-02-28T12:05:33;12.50;36.10
49238;DHT22;35069;47.906;1.892;2023-02-28T12:19:20;12.10;35.60
49238;DHT22;35069;47.906;1.892;2023-02-28T12:26:58;12.80;35.50
49238;DHT22;35069;47.906;1.892;2023-02-28T12:29:29;12.50;34.60
49238;DHT22;35069;47.906;1.892;2023-02-28T12:32:06;12.20;35.70
49238;DHT22;35069;47.906;1.892;2023-02-28T12:34:39;12.50;35.30
49238;DHT22;35069;47.906;1.892;2023-02-28T12:37:44;11.90;35.60
49238;DHT22;35069;47.906;1.892;2023-02-28T12:40:11;12.10;35.40
49238;DHT22;35069;47.906;1.892;2023-02-28T12:42:45;11.30;34.60
49238;DHT22;35069;47.906;1.892;2023-02-28T12:48:04;10.50;36.20
49238;DHT22;35069;47.906;1.892;2023-02-28T12:50:32;10.00;34.80
49238;DHT22;35069;47.906;1.892;2023-02-28T12:58:41;8.80;34.80
49238;DHT22;35069;47.906;1.892;2023-02-28T13:09:40;7.90;37.00
49238;DHT22;35069;47.906;1.892;2023-02-28T13:12:14;8.10;36.10
49238;DHT22;35069;47.906;1.892;2023-02-28T13:14:40;8.00;36.80
49238;DHT22;35069;47.906;1.892;2023-02-28T13:19:37;8.30;36.90
49238;DHT22;35069;47.906;1.892;2023-02-28T13:22:04;8.10;36.80
49238;DHT22;35069;47.906;1.892;2023-02-28T13:24:40;7.70;38.10
49238;DHT22;35069;47.906;1.892;2023-02-28T13:29:41;7.20;38.50
49238;DHT22;35069;47.906;1.892;2023-02-28T13:42:34;6.90;39.70
49238;DHT22;35069;47.906;1.892;2023-02-28T13:47:48;7.20;40.00
49238;DHT22;35069;47.906;1.892;2023-02-28T14:06:23;6.70;40.70
49238;DHT22;35069;47.906;1.892;2023-02-28T14:09:02;6.60;41.00
49238;DHT22;35069;47.906;1.892;2023-02-28T14:11:31;6.80;41.00
49238;DHT22;35069;47.906;1.892;2023-02-28T14:13:57;6.90;41.10
49238;DHT22;35069;47.906;1.892;2023-02-28T14:16:25;6.90;41.90
49238;DHT22;35069;47.906;1.892;2023-02-28T14:19:00;6.80;41.40
49238;DHT22;35069;47.906;1.892;2023-02-28T14:21:32;6.70;41.40
49238;DHT22;35069;47.906;1.892;2023-02-28T14:35:17;6.40;41.80
49238;DHT22;35069;47.906;1.892;2023-02-28T14:37:45;6.50;41.90
49238;DHT22;35069;47.906;1.892;2023-02-28T14:40:32;6.50;41.70
49238;DHT22;35069;47.906;1.892;2023-02-28T14:43:00;6.40;42.10
49238;DHT22;35069;47.906;1.892;2023-02-28T14:45:30;6.30;42.10
49238;DHT22;35069;47.906;1.892;2023-02-28T14:47:57;6.20;42.30
49238;DHT22;35069;47.906;1.892;2023-02-28T14:50:29;6.30;42.60
49238;DHT22;35069;47.906;1.892;2023-02-28T14:52:56;6.60;43.00
49238;DHT22;35069;47.906;1.892;2023-02-28T14:55:35;6.60;42.40
49238;DHT22;35069;47.906;1.892;2023-02-28T14:58:03;6.60;42.40
49238;DHT22;35069;47.906;1.892;2023-02-28T15:00:33;6.40;42.20
49238;DHT22;35069;47.906;1.892;2023-02-28T15:03:00;6.30;42.40
49238;DHT22;35069;47.906;1.892;2023-02-28T15:05:32;6.20;42.30
49238;DHT22;35069;47.906;1.892;2023-02-28T15:10:30;6.30;42.70
49238;DHT22;35069;47.906;1.892;2023-02-28T15:12:57;6.50;42.60
49238;DHT22;35069;47.906;1.892;2023-02-28T15:15:39;6.70;42.60
49238;DHT22;35069;47.906;1.892;2023-02-28T15:18:10;6.70;41.90
49238;DHT22;35069;47.906;1.892;2023-02-28T15:20:41;6.50;41.90
49238;DHT22;35069;47.906;1.892;2023-02-28T15:23:07;6.40;42.10
49238;DHT22;35069;47.906;1.892;2023-02-28T15:25:34;6.40;42.20
49238;DHT22;35069;47.906;1.892;2023-02-28T15:28:00;6.30;42.10
49238;DHT22;35069;47.906;1.892;2023-02-28T15:30:30;6.40;42.20
49238;DHT22;35069;47.906;1.892;2023-02-28T15:35:37;6.60;42.20
49238;DHT22;35069;47.906;1.892;2023-02-28T15:38:23;6.60;42.20
49238;DHT22;35069;47.906;1.892;2023-02-28T15:40:54;6.60;42.10
49238;DHT22;35069;47.906;1.892;2023-02-28T15:45:51;6.30;42.30
49238;DHT22;35069;47.906;1.892;2023-02-28T15:48:28;6.20;42.20
49238;DHT22;35069;47.906;1.892;2023-02-28T15:51:18;6.20;42.50
49238;DHT22;35069;47.906;1.892;2023-02-28T15:53:58;6.10;42.50
49238;DHT22;35069;47.906;1.892;2023-02-28T15:56:29;6.00;42.20
49238;DHT22;35069;47.906;1.892;2023-02-28T15:59:05;6.00;42.20
49238;DHT22;35069;47.906;1.892;2023-02-28T16:01:36;6.00;42.40
49238;DHT22;35069;47.906;1.892;2023-02-28T16:04:05;6.10;42.60
49238;DHT22;35069;47.906;1.892;2023-02-28T16:06:38;6.10;42.30
49238;DHT22;35069;47.906;1.892;2023-02-28T16:09:06;6.10;42.30
49238;DHT22;35069;47.906;1.892;2023-02-28T16:11:36;6.00;42.30
49238;DHT22;35069;47.906;1.892;2023-02-28T16:14:03;6.00;42.50
49238;DHT22;35069;47.906;1.892;2023-02-28T16:16:28;6.00;42.80
49238;DHT22;35069;47.906;1.892;2023-02-28T16:18:55;6.00;42.90
49238;DHT22;35069;47.906;1.892;2023-02-28T16:21:21;5.90;43.00
49238;DHT22;35069;47.906;1.892;2023-02-28T16:23:47;5.90;43.20
49238;DHT22;35069;47.906;1.892;2023-02-28T16:26:19;5.90;43.20
49238;DHT22;35069;47.906;1.892;2023-02-28T16:28:46;5.80;43.20
49238;DHT22;35069;47.906;1.892;2023-02-28T16:31:12;5.70;43.20
49238;DHT22;35069;47.906;1.892;2023-02-28T16:33:42;5.60;43.20
49238;DHT22;35069;47.906;1.892;2023-02-28T16:36:20;5.50;44.20
49238;DHT22;35069;47.906;1.892;2023-02-28T16:38:46;5.50;44.00
49238;DHT22;35069;47.906;1.892;2023-02-28T16:41:16;5.50;44.00
49238;DHT22;35069;47.906;1.892;2023-02-28T16:43:46;5.50;44.90
49238;DHT22;35069;47.906;1.892;2023-02-28T16:46:13;5.50;44.20
49238;DHT22;35069;47.906;1.892;2023-02-28T16:48:39;5.40;45.00
49238;DHT22;35069;47.906;1.892;2023-02-28T16:51:08;5.30;44.60
49238;DHT22;35069;47.906;1.892;2023-02-28T16:53:36;5.30;45.10
49238;DHT22;35069;47.906;1.892;2023-02-28T16:56:02;5.30;45.20
49238;DHT22;35069;47.906;1.892;2023-02-28T16:58:28;5.30;45.20
49238;DHT22;35069;47.906;1.892;2023-02-28T17:01:22;5.30;45.00
49238;DHT22;35069;47.906;1.892;2023-02-28T17:04:12;5.20;45.10
49238;DHT22;35069;47.906;1.892;2023-02-28T17:06:43;5.10;45.80
49238;DHT22;35069;47.906;1.892;2023-02-28T17:09:19;5.00;45.10
49238;DHT22;35069;47.906;1.892;2023-02-28T17:11:57;5.00;45.40
49238;DHT22;35069;47.906;1.892;2023-02-28T17:18:17;4.90;45.80
49238;DHT22;35069;47.906;1.892;2023-02-28T17:21:28;4.90;45.70
49238;DHT22;35069;47.906;1.892;2023-02-28T17:27:46;5.00;46.30
49238;DHT22;35069;47.906;1.892;2023-02-28T17:30:20;5.00;45.80
49238;DHT22;35069;47.906;1.892;2023-02-28T17:32:48;5.10;46.00
49238;DHT22;35069;47.906;1.892;2023-02-28T17:35:14;5.00;46.60
49238;DHT22;35069;47.906;1.892;2023-02-28T17:37:40;5.00;46.50
49238;DHT22;35069;47.906;1.892;2023-02-28T17:40:10;4.90;46.80
49238;DHT22;35069;47.906;1.892;2023-02-28T17:42:46;4.90;47.00
49238;DHT22;35069;47.906;1.892;2023-02-28T17:45:13;4.90;47.10
49238;DHT22;35069;47.906;1.892;2023-02-28T17:47:39;4.90;47.30
49238;DHT22;35069;47.906;1.892;2023-02-28T17:50:14;4.80;47.50
49238;DHT22;35069;47.906;1.892;2023-02-28T17:52:40;4.80;47.80
49238;DHT22;35069;47.906;1.892;2023-02-28T17:55:06;4.80;48.20
49238;DHT22;35069;47.906;1.892;2023-02-28T17:57:32;4.80;47.90
49238;DHT22;35069;47.906;1.892;2023-02-28T17:59:57;4.70;47.90
49238;DHT22;35069;47.906;1.892;2023-02-28T18:02:23;4.80;48.00
49238;DHT22;35069;47.906;1.892;2023-02-28T18:04:49;4.80;48.30
49238;DHT22;35069;47.906;1.892;2023-02-28T18:07:14;4.80;48.80
49238;DHT22;35069;47.906;1.892;2023-02-28T18:09:40;4.70;49.50
49238;DHT22;35069;47.906;1.892;2023-02-28T18:12:06;4.70;49.30
49238;DHT22;35069;47.906;1.892;2023-02-28T18:14:31;4.70;49.10
49238;DHT22;35069;47.906;1.892;2023-02-28T18:16:57;4.60;49.50
49238;DHT22;35069;47.906;1.892;2023-02-28T18:19:23;4.60;49.60
49238;DHT22;35069;47.906;1.892;2023-02-28T18:21:53;4.70;49.60
49238;DHT22;35069;47.906;1.892;2023-02-28T18:24:20;4.60;50.20
49238;DHT22;35069;47.906;1.892;2023-02-28T18:26:47;4.60;49.80
49238;DHT22;35069;47.906;1.892;2023-02-28T18:29:20;4.60;50.80
49238;DHT22;35069;47.906;1.892;2023-02-28T18:31:46;4.60;50.20
49238;DHT22;35069;47.906;1.892;2023-02-28T18:34:13;4.50;50.50
49238;DHT22;35069;47.906;1.892;2023-02-28T18:36:39;4.50;51.00
49238;DHT22;35069;47.906;1.892;2023-02-28T18:39:07;4.50;51.20
49238;DHT22;35069;47.906;1.892;2023-02-28T18:41:32;4.50;50.70
49238;DHT22;35069;47.906;1.892;2023-02-28T18:43:59;4.50;51.30
49238;DHT22;35069;47.906;1.892;2023-02-28T18:46:27;4.40;51.90
49238;DHT22;35069;47.906;1.892;2023-02-28T18:48:52;4.40;51.60
49238;DHT22;35069;47.906;1.892;2023-02-28T18:51:23;4.40;52.10
49238;DHT22;35069;47.906;1.892;2023-02-28T18:53:49;4.50;51.80
49238;DHT22;35069;47.906;1.892;2023-02-28T18:56:17;4.50;53.10
49238;DHT22;35069;47.906;1.892;2023-02-28T18:58:43;4.40;52.90
49238;DHT22;35069;47.906;1.892;2023-02-28T19:01:21;4.30;53.30
49238;DHT22;35069;47.906;1.892;2023-02-28T19:03:50;4.40;52.70
49238;DHT22;35069;47.906;1.892;2023-02-28T19:06:17;4.40;53.20
49238;DHT22;35069;47.906;1.892;2023-02-28T19:08:43;4.40;52.50
49238;DHT22;35069;47.906;1.892;2023-02-28T19:11:14;4.40;53.50